Time;durP1;ratioP1;P1;durP2;ratioP2;P2;SDS_P1;SDS_P2;PMS_P1;PMS_P2;Temp;Humidity;BMP_temperature;BMP_pressure;BME280_temperature;BME280_humidity;BME280_pressure;Samples;Min_cycle;Max_cycle;Signal;HPM_P1;HPM_P2
2022/04/13 00:02:03;;;;;;;4.90;2.40;;;;;;;12.47;100.00;101218.22;5109075;28;20031;-69
2022/04/13 00:04:28;;;;;;;9.75;2.40;;;;;;;12.64;100.00;101210.34;5109557;28;20043;-68
2022/04/13 00:07:03;;;;;;;4.47;2.25;;;;;;;12.61;100.00;101212.28;5109105;28;20039;-68
2022/04/13 00:09:29;;;;;;;8.38;2.47;;;;;;;12.61;100.00;101210.47;5109843;28;20047;-68
2022/04/13 00:11:59;;;;;;;4.50;2.75;;;;;;;12.61;100.00;101214.94;5114129;28;20031;-68
2022/04/13 00:14:24;;;;;;;5.45;2.20;;;;;;;12.60;100.00;101216.75;5102438;28;20429;-67
2022/04/13 00:16:54;;;;;;;7.20;2.42;;;;;;;12.61;100.00;101217.59;4988748;28;20156;-68
2022/04/13 00:19:21;;;;;;;3.08;1.73;;;;;;;12.66;100.00;101212.94;4998634;28;20038;-67
2022/04/13 00:21:47;;;;;;;3.60;2.10;;;;;;;12.76;100.00;101204.47;4996639;28;20552;-67
2022/04/13 00:24:13;;;;;;;2.20;1.40;;;;;;;12.87;100.00;101207.50;4992041;28;20026;-67
2022/04/13 00:26:39;;;;;;;3.50;2.05;;;;;;;12.76;100.00;101209.81;4994375;28;20448;-67
2022/04/13 00:29:04;;;;;;;3.72;1.88;;;;;;;12.73;100.00;101209.06;5001387;28;20114;-67
2022/04/13 00:31:30;;;;;;;3.53;1.85;;;;;;;12.79;100.00;101208.78;5006817;28;20139;-67
2022/04/13 00:33:55;;;;;;;4.30;1.88;;;;;;;12.78;100.00;101212.41;4989617;28;20034;-67
2022/04/13 00:36:21;;;;;;;2.70;1.35;;;;;;;12.77;100.00;101214.19;4993718;28;20027;-67
2022/04/13 00:38:46;;;;;;;3.58;2.33;;;;;;;12.72;100.00;101212.66;4998019;28;20030;-67
2022/04/13 00:41:12;;;;;;;3.33;1.98;;;;;;;12.74;100.00;101216.13;5014861;28;20471;-67
2022/04/13 00:43:37;;;;;;;2.15;1.27;;;;;;;12.78;100.00;101218.56;5019722;28;20032;-69
2022/04/13 00:46:03;;;;;;;3.67;1.95;;;;;;;12.78;100.00;101228.38;5024897;28;20087;-67
2022/04/13 00:48:30;;;;;;;2.72;1.40;;;;;;;12.84;100.00;101226.31;5028603;28;20026;-68
2022/04/13 00:50:56;;;;;;;3.17;1.70;;;;;;;13.05;100.00;101235.13;5030591;27;20034;-67
2022/04/13 00:53:23;;;;;;;3.25;1.73;;;;;;;13.09;100.00;101224.28;5045493;27;20033;-68
2022/04/13 00:55:53;;;;;;;2.95;2.03;;;;;;;13.00;100.00;101234.47;5106649;27;20023;-69
2022/04/13 00:58:25;;;;;;;3.90;1.48;;;;;;;12.98;100.00;101233.66;5132254;27;20034;-68
2022/04/13 01:00:52;;;;;;;4.20;1.80;;;;;;;12.95;100.00;101237.31;5031426;27;20067;-67
2022/04/13 01:03:23;;;;;;;4.35;1.52;;;;;;;13.13;100.00;101230.31;5039021;27;20044;-68
2022/04/13 01:05:49;;;;;;;3.15;1.40;;;;;;;13.20;100.00;101229.09;5056115;27;20085;-68
2022/04/13 01:08:17;;;;;;;3.80;2.10;;;;;;;13.38;100.00;101236.22;5037284;28;20030;-67
2022/04/13 01:10:44;;;;;;;2.80;1.75;;;;;;;13.47;100.00;101241.13;5027250;28;20033;-68
2022/04/13 01:13:10;;;;;;;9.40;2.00;;;;;;;13.42;100.00;101232.47;5117362;27;20027;-68
2022/04/13 01:15:36;;;;;;;4.03;2.53;;;;;;;13.45;100.00;101240.31;5132196;27;20393;-68
2022/04/13 01:18:03;;;;;;;1.98;1.45;;;;;;;13.28;100.00;101240.28;5132331;27;20112;-67
2022/04/13 01:20:28;;;;;;;2.90;1.67;;;;;;;13.16;100.00;101246.16;5132099;27;20092;-68
2022/04/13 01:22:54;;;;;;;3.63;1.50;;;;;;;13.17;100.00;101243.41;5089010;27;20492;-68
2022/04/13 01:25:19;;;;;;;3.22;2.10;;;;;;;13.25;100.00;101251.09;5062744;27;20467;-68
2022/04/13 01:27:44;;;;;;;2.95;1.63;;;;;;;13.23;100.00;101247.63;5070478;27;20060;-67
2022/04/13 01:30:12;;;;;;;11.55;2.10;;;;;;;13.24;100.00;101249.34;5048298;28;20286;-68
2022/04/13 01:32:38;;;;;;;2.83;1.23;;;;;;;13.19;100.00;101251.38;5047108;28;20033;-68
2022/04/13 01:35:04;;;;;;;2.35;1.42;;;;;;;13.17;100.00;101253.25;5048081;28;20036;-67
2022/04/13 01:37:29;;;;;;;7.32;1.50;;;;;;;13.12;100.00;101255.25;5047780;28;20158;-67
2022/04/13 01:39:54;;;;;;;1.65;1.20;;;;;;;13.36;100.00;101243.44;5047016;28;20053;-67
2022/04/13 01:42:21;;;;;;;6.00;1.50;;;;;;;13.24;100.00;101249.34;5047736;28;20029;-68
2022/04/13 01:44:47;;;;;;;4.55;2.47;;;;;;;13.21;100.00;101254.81;5046600;28;20567;-67
2022/04/13 01:47:13;;;;;;;6.38;1.20;;;;;;;13.34;100.00;101254.19;5047568;27;20033;-68
2022/04/13 01:49:39;;;;;;;3.22;1.38;;;;;;;13.38;100.00;101253.09;5047810;28;20025;-67
2022/04/13 01:52:06;;;;;;;4.38;1.50;;;;;;;13.19;100.00;101262.06;5046668;28;20443;-68
2022/04/13 01:54:31;;;;;;;2.47;1.25;;;;;;;13.10;100.00;101265.13;5047820;28;20033;-67
2022/04/13 01:56:57;;;;;;;4.10;1.95;;;;;;;13.07;100.00;101273.25;5047153;28;20406;-68
2022/04/13 01:59:23;;;;;;;4.95;1.67;;;;;;;13.04;100.00;101268.94;5037170;28;20387;-68
2022/04/13 02:01:48;;;;;;;3.63;0.93;;;;;;;13.20;100.00;101274.44;5073650;27;20019;-68
2022/04/13 02:04:24;;;;;;;2.65;1.75;;;;;;;13.24;100.00;101268.88;5131214;27;20454;-69
2022/04/13 02:06:50;;;;;;;2.15;1.42;;;;;;;13.19;100.00;101275.38;5130821;27;20035;-67
2022/04/13 02:09:17;;;;;;;2.03;1.02;;;;;;;13.26;100.00;101282.16;5131149;27;20046;-68
2022/04/13 02:11:43;;;;;;;3.38;1.33;;;;;;;13.10;100.00;101278.44;5131493;27;20038;-68
2022/04/13 02:14:09;;;;;;;2.63;1.35;;;;;;;13.07;100.00;101279.47;5130917;27;20026;-68
2022/04/13 02:16:35;;;;;;;3.17;1.40;;;;;;;13.08;100.00;101285.69;5131538;27;20033;-67
2022/04/13 02:19:03;;;;;;;1.38;0.93;;;;;;;12.98;100.00;101285.19;5131870;27;20417;-68
2022/04/13 02:21:30;;;;;;;2.60;1.20;;;;;;;12.92;100.00;101289.94;5130972;27;20181;-68
2022/04/13 02:23:56;;;;;;;3.38;1.63;;;;;;;12.94;100.00;101288.06;5131231;27;20357;-67
2022/04/13 02:26:22;;;;;;;2.92;1.23;;;;;;;13.12;100.00;101288.13;5130284;27;20030;-68
2022/04/13 02:28:48;;;;;;;4.45;1.67;;;;;;;13.15;100.00;101290.66;5130186;27;20023;-68
2022/04/13 02:31:14;;;;;;;3.08;1.85;;;;;;;13.15;100.00;101287.13;5130596;27;20502;-68
2022/04/13 02:33:39;;;;;;;3.65;1.88;;;;;;;13.19;100.00;101288.72;5130372;27;20031;-68
2022/04/13 02:36:06;;;;;;;3.20;2.00;;;;;;;13.20;100.00;101288.66;5130120;27;20019;-68
2022/04/13 02:38:32;;;;;;;5.43;2.67;;;;;;;13.25;100.00;101280.44;5130796;27;20027;-68
2022/04/13 02:40:57;;;;;;;3.75;1.92;;;;;;;13.18;100.00;101286.97;5129681;27;20453;-68
2022/04/13 02:43:24;;;;;;;6.03;2.58;;;;;;;13.17;100.00;101279.91;5130346;27;20111;-67
2022/04/13 02:45:50;;;;;;;4.10;2.03;;;;;;;13.24;100.00;101281.34;5130603;27;20023;-67
2022/04/13 02:48:15;;;;;;;4.82;1.63;;;;;;;13.29;100.00;101285.53;5129771;27;20031;-68
2022/04/13 02:50:41;;;;;;;5.47;2.25;;;;;;;13.21;100.00;101287.69;5130222;27;20062;-68
2022/04/13 02:53:07;;;;;;;9.73;2.38;;;;;;;13.30;100.00;101297.94;5130799;27;20027;-68
2022/04/13 02:55:32;;;;;;;4.85;2.58;;;;;;;13.19;100.00;101288.72;5129884;27;20415;-68
2022/04/13 02:57:58;;;;;;;3.33;1.70;;;;;;;13.22;100.00;101294.75;5130672;27;20030;-68
2022/04/13 03:00:23;;;;;;;5.50;1.85;;;;;;;13.19;100.00;101294.06;5130950;27;20034;-69
2022/04/13 03:02:48;;;;;;;9.80;2.38;;;;;;;13.11;100.00;101304.22;5130500;27;20056;-68
2022/04/13 03:05:14;;;;;;;5.00;1.92;;;;;;;13.06;100.00;101303.53;5130463;27;20027;-68
2022/04/13 03:07:39;;;;;;;8.55;3.45;;;;;;;12.96;100.00;101313.72;5130406;27;20102;-67
2022/04/13 03:10:06;;;;;;;4.55;2.47;;;;;;;12.99;100.00;101316.25;5130034;27;20117;-69
2022/04/13 03:12:35;;;;;;;5.03;1.83;;;;;;;13.02;100.00;101316.16;5130048;27;20030;-68
2022/04/13 03:15:05;;;;;;;4.30;2.33;;;;;;;12.92;100.00;101308.59;5130441;27;20050;-68
2022/04/13 03:17:30;;;;;;;3.10;2.03;;;;;;;12.87;100.00;101321.28;5129718;27;20035;-68
2022/04/13 03:19:56;;;;;;;5.00;2.10;;;;;;;13.06;100.00;101325.72;5130187;27;20108;-68
2022/04/13 03:22:22;;;;;;;4.00;2.13;;;;;;;13.10;100.00;101322.00;5129850;27;20114;-68
2022/04/13 03:24:48;;;;;;;3.05;1.58;;;;;;;13.18;100.00;101317.19;5129246;27;20027;-68
2022/04/13 03:27:13;;;;;;;3.78;1.58;;;;;;;13.02;100.00;101323.28;5129985;27;20088;-68
2022/04/13 03:29:39;;;;;;;2.83;1.98;;;;;;;13.04;100.00;101319.63;5130008;27;20424;-68
2022/04/13 03:32:05;;;;;;;4.43;2.50;;;;;;;13.11;100.00;101328.22;5129776;27;20023;-68
2022/04/13 03:34:30;;;;;;;3.05;2.17;;;;;;;13.12;100.00;101335.25;5129680;27;20476;-68
2022/04/13 03:36:55;;;;;;;4.10;1.85;;;;;;;13.07;100.00;101332.81;5129690;27;20042;-68
2022/04/13 03:39:21;;;;;;;3.30;2.20;;;;;;;13.12;100.00;101327.25;5128836;27;20110;-67
2022/04/13 03:41:46;;;;;;;4.35;1.92;;;;;;;13.06;100.00;101336.38;5129664;27;20023;-69
2022/04/13 03:44:12;;;;;;;4.85;2.28;;;;;;;13.06;100.00;101333.72;5128468;27;20448;-67
2022/04/13 03:46:37;;;;;;;4.82;2.00;;;;;;;13.06;100.00;101338.22;5129862;27;20102;-69
2022/04/13 03:49:03;;;;;;;3.63;1.70;;;;;;;13.11;100.00;101350.38;5129789;27;20061;-68
2022/04/13 03:51:28;;;;;;;5.18;2.40;;;;;;;12.98;100.00;101345.66;5128825;27;20532;-68
2022/04/13 03:53:53;;;;;;;2.85;1.58;;;;;;;13.00;100.00;101349.13;5130027;27;20031;-68
2022/04/13 03:56:22;;;;;;;3.88;2.40;;;;;;;12.99;100.00;101355.38;5129758;27;20376;-68
2022/04/13 03:58:47;;;;;;;5.45;2.10;;;;;;;13.02;100.00;101345.47;5129065;27;20027;-69
2022/04/13 04:01:13;;;;;;;6.32;2.10;;;;;;;13.01;100.00;101348.22;5129896;27;20035;-68
2022/04/13 04:03:38;;;;;;;5.47;1.75;;;;;;;12.95;100.00;101343.97;5130448;27;20027;-68
2022/04/13 04:06:04;;;;;;;5.30;1.70;;;;;;;13.01;100.00;101342.88;5129494;27;20058;-68
2022/04/13 04:08:32;;;;;;;3.97;1.67;;;;;;;13.04;100.00;101354.28;5129534;28;20050;-68
2022/04/13 04:11:00;;;;;;;3.17;2.33;;;;;;;13.01;100.00;101353.53;5129623;27;20024;-68
2022/04/13 04:13:26;;;;;;;4.55;1.80;;;;;;;12.98;100.00;101364.31;5129096;27;20052;-68
2022/04/13 04:15:54;;;;;;;3.83;2.28;;;;;;;12.94;100.00;101358.25;5129899;27;20024;-68
2022/04/13 04:18:19;;;;;;;5.85;3.03;;;;;;;12.82;100.00;101360.59;5129282;27;20023;-68
2022/04/13 04:20:45;;;;;;;4.22;2.03;;;;;;;12.71;100.00;101355.72;5061410;27;20053;-67
2022/04/13 04:23:11;;;;;;;4.10;2.40;;;;;;;12.64;100.00;101361.41;5025726;28;20497;-68
2022/04/13 04:25:37;;;;;;;4.65;1.88;;;;;;;12.44;100.00;101366.69;5011331;28;20026;-67
2022/04/13 04:28:03;;;;;;;5.25;1.85;;;;;;;12.30;100.00;101377.91;5010898;28;20390;-68
2022/04/13 04:30:31;;;;;;;5.65;2.60;;;;;;;12.18;100.00;101379.28;5013669;28;20112;-68
2022/04/13 04:32:57;;;;;;;5.30;2.25;;;;;;;12.13;100.00;101380.41;5008333;28;20432;-69
2022/04/13 04:35:22;;;;;;;3.72;2.42;;;;;;;11.99;100.00;101385.41;5031075;28;20051;-68
2022/04/13 04:37:48;;;;;;;6.13;2.75;;;;;;;11.88;100.00;101392.97;5129282;28;20329;-68
2022/04/13 04:40:14;;;;;;;3.83;1.95;;;;;;;12.03;100.00;101395.00;5128562;27;20047;-68
2022/04/13 04:42:49;;;;;;;6.55;2.15;;;;;;;11.92;100.00;101405.22;5082693;27;20033;-68
2022/04/13 04:45:19;;;;;;;8.18;2.63;;;;;;;12.00;100.00;101408.44;5024725;28;20033;-68
2022/04/13 04:47:44;;;;;;;6.40;2.75;;;;;;;11.98;100.00;101412.94;5024388;28;20070;-68
2022/04/13 04:50:10;;;;;;;5.97;2.88;;;;;;;11.93;100.00;101418.47;5017744;28;20112;-67
2022/04/13 04:52:43;;;;;;;4.38;2.10;;;;;;;11.90;100.00;101426.56;5023294;28;20029;-68
2022/04/13 04:55:10;;;;;;;3.83;2.30;;;;;;;11.88;100.00;101428.41;5015588;28;20379;-67
2022/04/13 04:57:35;;;;;;;4.25;2.50;;;;;;;11.74;100.00;101432.56;5024858;28;20036;-67
2022/04/13 05:00:01;;;;;;;9.05;2.63;;;;;;;11.71;100.00;101438.84;5008992;28;20038;-67
2022/04/13 05:02:26;;;;;;;4.95;3.35;;;;;;;11.60;100.00;101440.13;5007961;28;20057;-69
2022/04/13 05:04:51;;;;;;;5.53;2.78;;;;;;;11.51;100.00;101435.16;5008481;28;20117;-68
2022/04/13 05:07:17;;;;;;;5.68;3.28;;;;;;;11.44;100.00;101429.19;5007940;28;20107;-67
2022/04/13 05:09:42;;;;;;;5.70;2.70;;;;;;;11.45;100.00;101444.25;5008451;28;20038;-68
2022/04/13 05:12:08;;;;;;;4.38;3.13;;;;;;;11.45;100.00;101452.22;5008715;28;20487;-68
2022/04/13 05:14:34;;;;;;;5.35;2.55;;;;;;;11.56;100.00;101451.81;5008904;28;20073;-67
2022/04/13 05:16:59;;;;;;;4.68;2.85;;;;;;;11.51;100.00;101453.78;5007655;28;20068;-67
2022/04/13 05:19:25;;;;;;;6.63;2.20;;;;;;;11.57;100.00;101456.19;5007980;28;20076;-69
2022/04/13 05:21:50;;;;;;;10.07;3.65;;;;;;;11.61;100.00;101458.69;5007900;28;20113;-68
2022/04/13 05:24:15;;;;;;;3.30;2.50;;;;;;;11.70;100.00;101455.75;5007638;28;20094;-68
2022/04/13 05:26:41;;;;;;;5.65;2.63;;;;;;;11.68;100.00;101462.91;5008159;28;20399;-67
2022/04/13 05:29:06;;;;;;;7.60;3.42;;;;;;;11.70;100.00;101470.84;5008178;28;20026;-69
2022/04/13 05:31:34;;;;;;;8.35;3.63;;;;;;;11.69;100.00;101477.09;5007935;28;20034;-68
2022/04/13 05:34:02;;;;;;;4.75;2.47;;;;;;;11.83;100.00;101478.28;5008442;28;20026;-68
2022/04/13 05:36:28;;;;;;;6.78;3.05;;;;;;;11.87;100.00;101482.59;5090523;27;20027;-67
2022/04/13 05:38:56;;;;;;;7.03;3.55;;;;;;;11.92;100.00;101472.63;5131452;27;20131;-67
2022/04/13 05:41:21;;;;;;;6.75;3.42;;;;;;;11.99;100.00;101478.59;5128699;27;20047;-68
2022/04/13 05:43:46;;;;;;;5.35;2.95;;;;;;;12.05;100.00;101471.22;5130467;27;20046;-68
2022/04/13 05:46:12;;;;;;;5.80;2.92;;;;;;;12.03;100.00;101483.75;5131216;27;20027;-69
2022/04/13 05:48:38;;;;;;;8.50;3.75;;;;;;;12.05;100.00;101481.03;5131064;27;20091;-68
2022/04/13 05:51:03;;;;;;;5.20;3.15;;;;;;;12.08;100.00;101481.78;5130121;27;20103;-67
2022/04/13 05:53:28;;;;;;;6.03;3.05;;;;;;;12.20;100.00;101486.63;5130774;27;20454;-67
2022/04/13 05:55:56;;;;;;;6.88;3.60;;;;;;;12.36;100.00;101492.19;5068203;27;20093;-68
2022/04/13 05:58:25;;;;;;;4.40;2.78;;;;;;;12.52;100.00;101482.69;5007053;28;20642;-69
2022/04/13 06:00:51;;;;;;;3.60;2.97;;;;;;;12.63;100.00;101490.22;5007462;28;20133;-68
2022/04/13 06:03:18;;;;;;;6.35;2.33;;;;;;;12.56;100.00;101494.94;5007682;28;20049;-68
2022/04/13 06:05:44;;;;;;;5.07;2.88;;;;;;;12.60;100.00;101498.34;5009791;28;20514;-69
2022/04/13 06:08:09;;;;;;;6.55;3.75;;;;;;;12.72;100.00;101490.72;5026460;28;20025;-69
2022/04/13 06:10:35;;;;;;;4.20;2.00;;;;;;;12.89;100.00;101493.53;5027297;28;20428;-67
2022/04/13 06:13:00;;;;;;;3.92;2.80;;;;;;;12.97;100.00;101506.59;5027199;28;20040;-67
2022/04/13 06:15:28;;;;;;;2.80;1.77;;;;;;;13.06;100.00;101507.06;5027631;28;20028;-68
2022/04/13 06:17:54;;;;;;;7.47;2.75;;;;;;;13.10;100.00;101511.34;5027652;28;20041;-67
2022/04/13 06:20:19;;;;;;;3.75;2.65;;;;;;;12.96;100.00;101516.38;5026855;28;20130;-67
2022/04/13 06:22:44;;;;;;;4.05;2.30;;;;;;;13.03;100.00;101515.19;5027149;28;20532;-68
2022/04/13 06:25:11;;;;;;;2.47;1.98;;;;;;;13.16;100.00;101516.41;5026943;28;20025;-67
2022/04/13 06:27:37;;;;;;;6.03;2.05;;;;;;;13.17;100.00;101522.63;5026315;28;20117;-67
2022/04/13 06:30:03;;;;;;;5.00;1.88;;;;;;;13.16;100.00;101534.22;5027347;28;20109;-67
2022/04/13 06:32:45;;;;;;;7.63;3.00;;;;;;;13.12;100.00;101532.63;5026005;27;20025;-67
2022/04/13 06:35:13;;;;;;;3.42;2.67;;;;;;;13.18;100.00;101543.03;5036104;27;20052;-68
2022/04/13 06:37:40;;;;;;;8.35;2.53;;;;;;;13.19;100.00;101547.44;5023486;28;20074;-67
2022/04/13 06:40:07;;;;;;;4.53;2.10;;;;;;;13.07;100.00;101546.16;5030428;28;20056;-68
2022/04/13 06:42:34;;;;;;;2.55;1.52;;;;;;;13.14;100.00;101552.94;5047028;28;20650;-68
2022/04/13 06:45:00;;;;;;;1.77;1.23;;;;;;;13.35;100.00;101557.38;5039716;28;20033;-68
2022/04/13 06:47:26;;;;;;;4.95;1.83;;;;;;;13.20;100.00;101565.19;5030871;28;20033;-67
2022/04/13 06:49:52;;;;;;;6.88;2.90;;;;;;;13.16;100.00;101564.44;5029483;28;20110;-66
2022/04/13 06:52:17;;;;;;;3.63;1.67;;;;;;;13.52;100.00;101567.34;5024403;28;20119;-67
2022/04/13 06:54:42;;;;;;;7.00;2.50;;;;;;;13.48;100.00;101571.06;5024628;28;20041;-67
2022/04/13 06:57:08;;;;;;;2.88;1.90;;;;;;;13.40;100.00;101571.41;5026356;28;20021;-67
2022/04/13 06:59:34;;;;;;;3.38;2.05;;;;;;;13.40;100.00;101575.88;5034473;28;20069;-67
2022/04/13 07:02:00;;;;;;;2.40;1.58;;;;;;;13.40;100.00;101574.06;5044701;28;20036;-67
2022/04/13 07:04:25;;;;;;;2.30;1.30;;;;;;;13.73;100.00;101575.28;5045731;28;20025;-67
2022/04/13 07:06:50;;;;;;;2.78;1.75;;;;;;;13.62;100.00;101576.69;5018006;28;20033;-68
2022/04/13 07:09:16;;;;;;;3.63;1.35;;;;;;;13.58;100.00;101572.44;5037230;28;20059;-68
2022/04/13 07:11:41;;;;;;;6.40;2.22;;;;;;;13.98;100.00;101568.88;5025950;28;20045;-67
2022/04/13 07:14:06;;;;;;;2.83;1.60;;;;;;;13.90;100.00;101577.19;5026328;28;20173;-67
2022/04/13 07:16:32;;;;;;;4.97;1.70;;;;;;;14.13;100.00;101582.38;5025018;28;20399;-68
2022/04/13 07:18:57;;;;;;;6.82;1.75;;;;;;;14.18;100.00;101583.03;5037405;28;20029;-67
2022/04/13 07:21:23;;;;;;;2.55;1.65;;;;;;;14.29;100.00;101591.44;5035934;28;20029;-67
2022/04/13 07:23:48;;;;;;;5.95;1.80;;;;;;;14.07;100.00;101596.03;5025793;28;20117;-68
2022/04/13 07:26:14;;;;;;;5.68;2.17;;;;;;;14.13;100.00;101601.09;5025818;28;20125;-67
2022/04/13 07:28:39;;;;;;;6.32;1.38;;;;;;;14.49;100.00;101606.56;5036694;28;20161;-67
2022/04/13 07:31:05;;;;;;;4.50;1.40;;;;;;;14.27;100.00;101603.16;5028510;28;20029;-68
2022/04/13 07:33:30;;;;;;;2.80;1.65;;;;;;;14.60;100.00;101605.16;5025342;28;20083;-68
2022/04/13 07:35:56;;;;;;;5.07;1.67;;;;;;;14.49;100.00;101609.25;5071606;27;20393;-67
2022/04/13 07:38:21;;;;;;;2.70;1.58;;;;;;;14.51;100.00;101613.56;5128320;27;20026;-68
2022/04/13 07:40:48;;;;;;;3.38;1.77;;;;;;;14.74;100.00;101608.03;5129224;27;20508;-68
2022/04/13 07:43:16;;;;;;;4.15;1.75;;;;;;;14.91;100.00;101610.75;5129206;27;20127;-68
2022/04/13 07:45:43;;;;;;;2.80;1.45;;;;;;;14.68;100.00;101619.03;5049151;27;20029;-68
2022/04/13 07:48:08;;;;;;;2.30;1.52;;;;;;;14.66;100.00;101612.00;5013800;28;20036;-68
2022/04/13 07:50:34;;;;;;;7.72;2.05;;;;;;;14.67;100.00;101613.75;5007303;28;20094;-68
2022/04/13 07:52:59;;;;;;;4.53;1.60;;;;;;;14.77;100.00;101609.69;5012064;28;20068;-68
2022/04/13 07:55:24;;;;;;;3.78;1.63;;;;;;;14.77;100.00;101620.38;5007697;28;20269;-68
2022/04/13 07:57:52;;;;;;;3.05;1.50;;;;;;;14.75;100.00;101619.59;5007225;28;20061;-68
2022/04/13 08:00:18;;;;;;;3.88;1.35;;;;;;;14.64;100.00;101622.75;5005219;28;20411;-68
2022/04/13 08:02:44;;;;;;;3.97;1.83;;;;;;;14.73;100.00;101608.94;5005146;28;20038;-68
2022/04/13 08:05:12;;;;;;;2.58;1.85;;;;;;;14.80;100.00;101607.72;5008054;28;20059;-68
2022/04/13 08:07:38;;;;;;;6.68;1.65;;;;;;;14.91;100.00;101617.91;5007861;28;20103;-68
2022/04/13 08:10:04;;;;;;;5.60;2.00;;;;;;;14.79;100.00;101623.84;5009814;28;20029;-67
2022/04/13 08:12:30;;;;;;;3.00;1.60;;;;;;;14.71;100.00;101624.22;5022032;28;20038;-68
2022/04/13 08:14:56;;;;;;;5.20;1.77;;;;;;;14.71;100.00;101621.53;5023734;28;20033;-68
2022/04/13 08:17:24;;;;;;;7.40;2.03;;;;;;;14.94;100.00;101623.97;5022201;28;20036;-67
2022/04/13 08:19:49;;;;;;;6.05;1.58;;;;;;;15.05;100.00;101621.66;5021782;28;20312;-68
2022/04/13 08:22:16;;;;;;;4.68;1.55;;;;;;;14.91;100.00;101641.97;5024126;28;20061;-68
2022/04/13 08:24:41;;;;;;;3.47;1.15;;;;;;;14.94;100.00;101633.81;5025305;28;20059;-67
2022/04/13 08:27:09;;;;;;;3.13;1.60;;;;;;;15.04;100.00;101643.13;5024713;28;20029;-68
2022/04/13 08:29:35;;;;;;;2.83;1.75;;;;;;;15.13;100.00;101646.22;5019139;28;20045;-68
2022/04/13 08:32:01;;;;;;;4.40;1.63;;;;;;;15.24;100.00;101641.22;5008056;28;20537;-69
2022/04/13 08:34:26;;;;;;;2.67;1.30;;;;;;;14.97;100.00;101647.06;5015885;28;20025;-68
2022/04/13 08:36:51;;;;;;;3.67;1.08;;;;;;;14.94;100.00;101649.84;5044758;28;20194;-68
2022/04/13 08:39:17;;;;;;;2.50;1.38;;;;;;;15.30;100.00;101654.28;5048233;28;20029;-68
2022/04/13 08:41:50;;;;;;;5.45;1.65;;;;;;;15.29;100.00;101644.53;5047955;28;20562;-67
2022/04/13 08:44:18;;;;;;;3.60;1.40;;;;;;;15.51;100.00;101648.84;5048952;28;20040;-69
2022/04/13 08:46:45;;;;;;;2.97;1.38;;;;;;;15.34;100.00;101650.53;5048495;28;20108;-68
2022/04/13 08:49:16;;;;;;;2.15;1.23;;;;;;;15.43;100.00;101643.03;5049311;28;20426;-67
2022/04/13 08:51:42;;;;;;;4.13;1.33;;;;;;;15.49;100.00;101640.03;5048086;28;20076;-65
2022/04/13 08:54:11;;;;;;;3.90;1.25;;;;;;;15.63;100.00;101645.56;5047751;28;20486;-65
2022/04/13 08:56:39;;;;;;;2.90;1.30;;;;;;;15.27;100.00;101649.09;5048177;28;20108;-66
2022/04/13 08:59:15;;;;;;;3.67;1.10;;;;;;;15.66;100.00;101650.78;5048270;28;20037;-66
2022/04/13 09:01:59;;;;;;;0.90;0.57;;;;;;;15.52;100.00;101653.28;5047650;28;20423;-65
2022/04/13 09:04:27;;;;;;;6.82;1.40;;;;;;;15.74;100.00;101664.63;5048440;28;20060;-65
2022/04/13 09:06:57;;;;;;;3.08;0.98;;;;;;;15.83;100.00;101669.53;5048396;28;20101;-66
2022/04/13 09:09:41;;;;;;;2.45;1.45;;;;;;;15.89;100.00;101669.19;5047839;28;20029;-66
2022/04/13 09:12:08;;;;;;;4.47;1.08;;;;;;;15.46;100.00;101666.97;5048204;28;20116;-66
2022/04/13 09:14:35;;;;;;;3.47;1.00;;;;;;;15.40;100.00;101673.47;5048371;28;20028;-66
2022/04/13 09:17:01;;;;;;;2.50;1.20;;;;;;;15.35;100.00;101676.34;5038533;28;20037;-66
2022/04/13 09:19:26;;;;;;;5.03;1.65;;;;;;;15.61;100.00;101691.16;5015255;28;20021;-66
2022/04/13 09:21:53;;;;;;;2.10;0.93;;;;;;;15.78;100.00;101688.50;5007222;28;20162;-66
2022/04/13 09:24:19;;;;;;;1.67;0.85;;;;;;;15.68;100.00;101699.78;5007728;28;20058;-66
2022/04/13 09:26:45;;;;;;;4.05;0.80;;;;;;;16.11;100.00;101697.50;5007755;28;20116;-66
2022/04/13 09:29:11;;;;;;;4.50;1.13;;;;;;;16.34;100.00;101693.63;5009913;28;20094;-67
2022/04/13 09:31:42;;;;;;;5.00;1.67;;;;;;;16.15;100.00;101698.22;5017788;28;20034;-66
2022/04/13 09:34:09;;;;;;;4.05;1.45;;;;;;;16.04;100.00;101704.09;5010742;28;20026;-66
2022/04/13 09:36:35;;;;;;;6.57;2.10;;;;;;;16.43;100.00;101710.09;5017968;27;20026;-66
2022/04/13 09:39:01;;;;;;;2.55;1.25;;;;;;;16.59;100.00;101715.53;5016222;28;20022;-66
2022/04/13 09:41:37;;;;;;;1.67;0.95;;;;;;;16.57;100.00;101717.41;5004069;28;20050;-67
2022/04/13 09:44:15;;;;;;;2.50;1.52;;;;;;;16.39;100.00;101713.00;5006028;28;20050;-66
2022/04/13 09:46:42;;;;;;;5.30;1.30;;;;;;;15.83;100.00;101713.25;5010698;28;20025;-67
2022/04/13 09:49:21;;;;;;;2.50;1.65;;;;;;;16.40;100.00;101720.94;5020828;28;20029;-66
2022/04/13 09:51:50;;;;;;;3.77;1.33;;;;;;;15.90;100.00;101727.22;5027107;28;20206;-66
2022/04/13 09:54:23;;;;;;;3.43;1.47;;;;;;;15.96;100.00;101734.94;5027164;28;20074;-67
2022/04/13 09:56:48;;;;;;;3.00;1.58;;;;;;;15.82;100.00;101737.44;5007281;28;20272;-67
2022/04/13 09:59:28;;;;;;;2.30;1.20;;;;;;;15.82;100.00;101742.81;5012661;28;20447;-67
2022/04/13 10:01:55;;;;;;;4.53;1.88;;;;;;;15.59;100.00;101743.06;5011972;28;20087;-67
2022/04/13 10:04:31;;;;;;;5.30;1.33;;;;;;;15.67;100.00;101743.53;5014745;28;20045;-67
2022/04/13 10:07:15;;;;;;;2.40;1.40;;;;;;;15.79;100.00;101733.09;5007355;28;20106;-67
2022/04/13 10:09:41;;;;;;;5.72;2.03;;;;;;;15.72;100.00;101737.03;5019045;28;20166;-66
2022/04/13 10:12:08;;;;;;;5.78;1.65;;;;;;;15.39;100.00;101744.03;5023595;28;20459;-67
2022/04/13 10:14:33;;;;;;;3.25;1.83;;;;;;;15.60;100.00;101737.63;5013036;28;20045;-66
2022/04/13 10:17:09;;;;;;;4.38;2.03;;;;;;;15.27;100.00;101739.22;5006706;28;20030;-68
2022/04/13 10:19:35;;;;;;;4.47;2.40;;;;;;;15.21;100.00;101743.06;5006077;28;20025;-65
2022/04/13 10:22:01;;;;;;;4.05;2.38;;;;;;;14.92;100.00;101748.91;5007868;28;20026;-68
2022/04/13 10:24:35;;;;;;;5.82;2.50;;;;;;;15.09;100.00;101748.13;5007257;28;20045;-67
2022/04/13 10:27:20;;;;;;;4.72;1.95;;;;;;;14.97;100.00;101746.88;5006580;28;20050;-67
2022/04/13 10:29:47;;;;;;;6.75;2.67;;;;;;;14.91;100.00;101757.00;5007686;28;20140;-65
2022/04/13 10:32:18;;;;;;;4.90;2.15;;;;;;;14.83;100.00;101749.34;5006618;28;20030;-66
2022/04/13 10:34:51;;;;;;;5.85;1.90;;;;;;;14.78;100.00;101750.50;5007237;28;20030;-65
2022/04/13 10:37:19;;;;;;;4.25;2.17;;;;;;;14.79;100.00;101754.91;5130521;27;20118;-66
2022/04/13 10:39:46;;;;;;;4.97;2.28;;;;;;;14.78;100.00;101758.53;5130497;27;20027;-66
2022/04/13 10:42:14;;;;;;;4.28;2.15;;;;;;;14.68;100.00;101766.09;5130762;27;20098;-66
2022/04/13 10:44:48;;;;;;;3.47;2.05;;;;;;;14.76;100.00;101766.63;5130866;27;20030;-66
2022/04/13 10:47:18;;;;;;;3.42;1.90;;;;;;;14.58;100.00;101763.88;5129763;27;20039;-66
2022/04/13 10:49:55;;;;;;;;;;;;;;;14.17;100.00;101771.00;5130911;27;20023;-65
2022/04/13 10:52:30;;;;;;;2.92;2.22;;;;;;;14.00;100.00;101785.97;5130291;27;20010;-65
2022/04/13 10:55:05;;;;;;;5.38;1.75;;;;;;;14.02;100.00;101800.16;5129421;27;20040;-66
2022/04/13 10:57:39;;;;;;;3.72;2.40;;;;;;;14.18;100.00;101796.75;5130711;27;20057;-65
2022/04/13 11:00:06;;;;;;;5.40;2.78;;;;;;;14.09;100.00;101807.84;5130474;27;20363;-66
2022/04/13 11:02:55;;;;;;;3.25;2.00;;;;;;;14.23;100.00;101805.47;5129750;27;20072;-66
2022/04/13 11:05:25;;;;;;;6.18;2.60;;;;;;;14.44;100.00;101791.22;5130135;27;20445;-66
2022/04/13 11:08:08;;;;;;;5.88;2.60;;;;;;;14.58;100.00;101802.19;5129568;27;20019;-66
2022/04/13 11:10:35;;;;;;;3.28;2.10;;;;;;;14.71;100.00;101800.72;5130278;27;20196;-66
2022/04/13 11:13:00;;;;;;;4.65;2.30;;;;;;;14.85;100.00;101797.41;5130349;27;20491;-66
2022/04/13 11:15:43;;;;;;;4.28;1.80;;;;;;;14.86;100.00;101789.31;5129308;27;20110;-66
2022/04/13 11:18:20;;;;;;;6.88;3.33;;;;;;;15.08;100.00;101786.53;5130096;27;20523;-66